createdAt,value
2018-08-24T00:01:57.691Z,18.77
2018-08-24T00:04:26.239Z,20.40
2018-08-24T00:06:54.752Z,20.07
2018-08-24T00:09:27.133Z,20.30
2018-08-24T00:23:32.576Z,18.97
2018-08-24T00:34:38.769Z,17.57
2018-08-24T00:37:07.310Z,17.93
2018-08-24T00:42:28.390Z,17.60
2018-08-24T00:50:42.206Z,16.73
2018-08-24T00:53:14.932Z,18.33
2018-08-24T00:55:44.361Z,16.80
2018-08-24T01:04:02.729Z,17.17
2018-08-24T01:17:22.413Z,17.03
2018-08-24T01:22:50.745Z,15.07
2018-08-24T01:36:49.804Z,13.07
2018-08-24T01:39:18.465Z,12.50
2018-08-24T01:41:46.994Z,12.73
2018-08-24T01:44:20.425Z,12.43
2018-08-24T01:52:51.468Z,11.83
2018-08-24T01:58:13.572Z,11.27
2018-08-24T02:00:42.186Z,11.63
2018-08-24T02:03:10.691Z,11.57
2018-08-24T02:05:39.338Z,11.00
2018-08-24T02:08:07.983Z,11.20
2018-08-24T02:10:36.588Z,10.53
2018-08-24T02:13:10.520Z,10.70
2018-08-24T02:15:44.372Z,10.47
2018-08-24T02:18:18.958Z,10.87
2018-08-24T02:20:52.811Z,10.60
2018-08-24T02:23:21.392Z,10.37
2018-08-24T02:25:49.970Z,11.17
2018-08-24T02:31:29.066Z,10.30
2018-08-24T02:36:52.353Z,11.43
2018-08-24T02:42:13.554Z,11.27
2018-08-24T02:47:52.530Z,10.50
2018-08-24T02:50:21.335Z,10.63
2018-08-24T02:52:49.867Z,10.10
2018-08-24T02:55:18.603Z,9.40
2018-08-24T02:57:47.098Z,9.73
2018-08-24T03:00:16.996Z,10.27
2018-08-24T03:02:45.560Z,10.13
2018-08-24T03:05:14.165Z,10.53
2018-08-24T03:07:42.631Z,10.10
2018-08-24T03:10:11.159Z,10.03
2018-08-24T03:12:39.702Z,9.77
2018-08-24T03:15:08.279Z,10.03
2018-08-24T03:17:41.917Z,10.97
2018-08-24T03:20:10.443Z,10.27
2018-08-24T03:25:39.328Z,10.87
2018-08-24T03:28:08.827Z,11.13
2018-08-24T03:45:07.847Z,11.27
2018-08-24T03:56:14.421Z,11.83
2018-08-24T04:01:36.188Z,11.43
2018-08-24T04:04:04.729Z,11.33
2018-08-24T04:06:33.242Z,11.43
2018-08-24T04:09:01.794Z,12.00
2018-08-24T04:11:30.406Z,12.67
2018-08-24T04:13:58.911Z,12.50
2018-08-24T04:16:27.482Z,13.57
2018-08-24T04:18:55.974Z,13.63
2018-08-24T04:21:24.458Z,14.30
2018-08-24T04:23:52.959Z,14.50
2018-08-24T04:26:21.506Z,13.93
2018-08-24T04:28:49.977Z,14.27
2018-08-24T04:31:18.492Z,14.07
2018-08-24T04:33:47.030Z,14.07
2018-08-24T04:36:15.563Z,14.03
2018-08-24T04:38:44.055Z,13.33
2018-08-24T04:41:12.628Z,12.43
2018-08-24T04:43:41.131Z,13.30
2018-08-24T04:46:09.641Z,12.87
2018-08-24T04:48:38.138Z,13.33
2018-08-24T04:51:06.645Z,14.00
2018-08-24T04:53:35.098Z,12.47
2018-08-24T04:56:03.589Z,11.70
2018-08-24T04:58:32.054Z,11.90
2018-08-24T05:01:00.549Z,11.40
2018-08-24T05:03:29.025Z,11.30
2018-08-24T05:05:57.511Z,11.07
2018-08-24T05:08:26.022Z,10.97
2018-08-24T05:10:54.518Z,11.60
2018-08-24T05:13:23.040Z,10.43
2018-08-24T05:15:51.496Z,11.07
2018-08-24T05:18:19.995Z,10.67
2018-08-24T05:20:48.496Z,10.33
2018-08-24T05:23:17.000Z,10.80
2018-08-24T05:25:45.466Z,10.30
2018-08-24T05:28:14.085Z,10.87
2018-08-24T05:30:42.598Z,9.53
2018-08-24T05:33:11.550Z,10.20
2018-08-24T05:35:40.167Z,10.30
2018-08-24T05:38:08.933Z,10.00
2018-08-24T05:40:37.873Z,9.83
2018-08-24T05:43:06.457Z,9.90
2018-08-24T05:45:34.938Z,10.17
2018-08-24T05:48:03.524Z,10.77
2018-08-24T05:50:32.319Z,10.47
2018-08-24T05:53:01.204Z,10.43
2018-08-24T05:55:29.906Z,10.00
2018-08-24T05:57:58.468Z,10.40
2018-08-24T06:00:32.297Z,10.10
2018-08-24T06:03:00.872Z,9.57
2018-08-24T06:05:29.423Z,9.80
2018-08-24T06:07:58.271Z,9.40
2018-08-24T06:10:26.784Z,10.30
2018-08-24T06:12:55.327Z,9.40
2018-08-24T06:15:23.888Z,9.87
2018-08-24T06:17:53.856Z,9.97
2018-08-24T06:20:23.046Z,9.87
2018-08-24T06:22:51.814Z,9.27
2018-08-24T06:25:20.367Z,9.73
2018-08-24T06:27:48.955Z,9.43
2018-08-24T06:30:20.512Z,9.77
2018-08-24T06:32:49.143Z,9.53
2018-08-24T06:35:17.533Z,9.63
2018-08-24T06:37:46.069Z,10.23
2018-08-24T06:40:14.551Z,9.90
2018-08-24T06:42:43.067Z,9.90
2018-08-24T06:45:11.542Z,9.60
2018-08-24T06:47:40.098Z,10.33
2018-08-24T06:50:08.625Z,9.80
2018-08-24T06:52:37.180Z,10.93
2018-08-24T06:55:05.933Z,11.30
2018-08-24T06:57:34.558Z,10.50
2018-08-24T07:00:03.059Z,10.90
2018-08-24T07:02:31.533Z,10.13
2018-08-24T07:05:00.037Z,10.73
2018-08-24T07:07:28.510Z,11.47
2018-08-24T07:09:57.020Z,11.60
2018-08-24T07:12:25.534Z,11.57
2018-08-24T07:14:54.061Z,11.10
2018-08-24T07:17:27.808Z,11.67
2018-08-24T07:19:56.304Z,11.77
2018-08-24T07:22:24.774Z,11.43
2018-08-24T07:24:53.291Z,10.30
2018-08-24T07:27:21.749Z,11.37
2018-08-24T07:29:50.266Z,11.87
2018-08-24T07:32:18.744Z,11.43
2018-08-24T07:34:47.306Z,11.63
2018-08-24T07:37:15.769Z,11.63
2018-08-24T07:39:44.307Z,12.90
2018-08-24T07:42:12.818Z,12.03
2018-08-24T07:44:46.498Z,11.43
2018-08-24T07:47:14.998Z,12.53
2018-08-24T07:49:43.509Z,12.50
2018-08-24T07:52:11.998Z,13.63
2018-08-24T07:54:40.529Z,12.67
2018-08-24T07:57:09.098Z,12.17
2018-08-24T07:59:37.543Z,12.13
2018-08-24T08:02:06.079Z,10.67
2018-08-24T08:04:34.564Z,10.90
2018-08-24T08:07:03.043Z,12.93
2018-08-24T08:09:31.546Z,12.40
2018-08-24T08:12:00.337Z,12.97
2018-08-24T08:14:29.059Z,11.83
2018-08-24T08:16:58.431Z,12.13
2018-08-24T08:22:20.148Z,11.07
2018-08-24T08:24:48.657Z,12.10
2018-08-24T08:27:17.112Z,11.40
2018-08-24T08:29:50.934Z,12.00
2018-08-24T08:32:19.389Z,10.97
2018-08-24T08:34:52.420Z,10.20
2018-08-24T08:37:21.999Z,9.70
2018-08-24T08:39:50.907Z,7.80
2018-08-24T08:42:19.703Z,8.00
2018-08-24T08:44:48.173Z,8.17
2018-08-24T08:47:16.661Z,8.80
2018-08-24T08:49:45.129Z,8.80
2018-08-24T08:52:13.590Z,8.80
2018-08-24T08:54:42.092Z,10.57
2018-08-24T08:57:10.546Z,10.30
2018-08-24T08:59:39.053Z,10.17
2018-08-24T09:02:09.378Z,9.97
2018-08-24T09:04:38.078Z,10.97
2018-08-24T09:07:06.607Z,11.10
2018-08-24T09:10:59.905Z,10.20
2018-08-24T09:13:28.366Z,9.70
2018-08-24T09:15:56.891Z,8.67
2018-08-24T09:18:31.235Z,9.53
2018-08-24T09:21:04.937Z,8.40
2018-08-24T09:23:38.749Z,9.20
2018-08-24T09:26:12.419Z,9.17
2018-08-24T09:28:41.257Z,8.37
2018-08-24T09:31:15.826Z,8.43
2018-08-24T09:33:44.258Z,8.40
2018-08-24T09:36:18.805Z,9.07
2018-08-24T09:38:47.813Z,9.27
2018-08-24T09:41:16.285Z,10.50
2018-08-24T09:43:49.844Z,10.93
2018-08-24T09:46:18.414Z,11.70
2018-08-24T09:48:52.265Z,10.77
2018-08-24T09:51:26.496Z,10.10
2018-08-24T09:54:01.367Z,11.30
2018-08-24T09:56:30.782Z,11.37
2018-08-24T09:58:59.950Z,11.97
2018-08-24T10:01:33.766Z,11.77
2018-08-24T10:04:07.441Z,12.60
2018-08-24T10:06:41.377Z,12.77
2018-08-24T10:09:11.482Z,10.83
2018-08-24T10:11:40.046Z,11.00
2018-08-24T10:14:08.860Z,11.90
2018-08-24T10:16:37.566Z,12.30
2018-08-24T10:19:06.238Z,11.23
2018-08-24T10:21:34.746Z,10.77
2018-08-24T10:24:03.226Z,10.60
2018-08-24T10:26:31.698Z,10.93
2018-08-24T10:29:00.245Z,10.20
2018-08-24T10:31:28.733Z,9.90
2018-08-24T10:33:57.188Z,10.57
2018-08-24T10:36:25.749Z,9.57
2018-08-24T10:38:54.207Z,9.07
2018-08-24T10:41:22.711Z,8.57
2018-08-24T10:43:51.190Z,8.10
2018-08-24T10:46:19.694Z,7.93
2018-08-24T10:48:48.301Z,8.23
2018-08-24T10:51:16.821Z,7.77
2018-08-24T10:53:45.264Z,8.00
2018-08-24T10:56:13.834Z,7.83
2018-08-24T10:58:42.237Z,7.73
2018-08-24T11:01:10.726Z,7.77
2018-08-24T11:03:39.206Z,7.53
2018-08-24T11:06:07.686Z,7.57
2018-08-24T11:08:36.163Z,6.80
2018-08-24T11:11:04.660Z,6.93
2018-08-24T11:13:33.117Z,6.67
2018-08-24T11:16:01.609Z,7.53
2018-08-24T11:18:30.083Z,6.47
2018-08-24T11:20:58.555Z,6.60
2018-08-24T11:23:27.684Z,6.60
2018-08-24T11:25:56.267Z,5.90
2018-08-24T11:28:24.719Z,6.50
2018-08-24T11:30:53.192Z,6.00
2018-08-24T11:33:21.720Z,6.27
2018-08-24T11:35:50.236Z,6.40
2018-08-24T11:38:18.762Z,6.90
2018-08-24T11:40:47.225Z,7.33
2018-08-24T11:43:16.703Z,7.47
2018-08-24T11:45:45.173Z,7.80
2018-08-24T11:48:13.684Z,8.37
2018-08-24T11:50:42.134Z,8.70
2018-08-24T11:53:10.643Z,8.37
2018-08-24T11:55:39.172Z,8.23
2018-08-24T11:58:07.712Z,7.97
2018-08-24T12:00:36.301Z,7.73
2018-08-24T12:03:05.540Z,7.40
2018-08-24T12:05:34.077Z,6.50
2018-08-24T12:08:03.026Z,6.50
2018-08-24T12:10:31.511Z,6.60
2018-08-24T12:13:00.214Z,5.73
2018-08-24T12:15:28.731Z,5.60
2018-08-24T12:17:57.621Z,6.10
2018-08-24T12:20:26.091Z,5.60
2018-08-24T12:22:54.746Z,5.77
2018-08-24T12:25:23.352Z,5.50
2018-08-24T12:27:51.869Z,5.50
2018-08-24T12:30:20.421Z,6.00
2018-08-24T12:32:48.930Z,5.50
2018-08-24T12:35:17.413Z,5.33
2018-08-24T12:37:46.979Z,5.63
2018-08-24T12:40:16.148Z,5.30
2018-08-24T12:42:45.060Z,5.67
2018-08-24T12:45:13.549Z,5.93
2018-08-24T12:47:42.078Z,5.90
2018-08-24T12:50:11.113Z,6.27
2018-08-24T12:52:39.635Z,5.93
2018-08-24T12:55:08.122Z,6.20
2018-08-24T12:57:36.602Z,6.40
2018-08-24T13:00:05.728Z,6.40
2018-08-24T13:02:34.178Z,6.40
2018-08-24T13:05:02.632Z,6.10
2018-08-24T13:07:31.142Z,6.17
2018-08-24T13:09:59.563Z,5.70
2018-08-24T13:12:28.065Z,5.70
2018-08-24T13:14:56.517Z,5.87
2018-08-24T13:17:25.016Z,5.72
2018-08-24T13:19:53.562Z,5.40
2018-08-24T13:22:22.115Z,5.60
2018-08-24T13:24:50.581Z,5.03
2018-08-24T13:27:19.119Z,4.97
2018-08-24T13:29:47.603Z,4.80
2018-08-24T13:32:16.133Z,4.83
2018-08-24T13:34:44.610Z,5.33
2018-08-24T13:37:13.857Z,4.93
2018-08-24T13:39:42.474Z,4.60
2018-08-24T13:42:10.953Z,4.60
2018-08-24T13:44:39.523Z,4.45
2018-08-24T13:47:07.989Z,4.55
2018-08-24T13:49:36.510Z,4.85
2018-08-24T13:52:05.040Z,4.85
2018-08-24T13:54:33.636Z,4.30
2018-08-24T13:57:07.028Z,4.37
2018-08-24T13:59:35.663Z,4.40
2018-08-24T14:02:04.689Z,4.23
2018-08-24T14:04:33.166Z,4.07
2018-08-24T14:07:01.626Z,4.13
2018-08-24T14:09:30.111Z,4.00
2018-08-24T14:11:58.557Z,3.90
2018-08-24T14:14:27.025Z,4.03
2018-08-24T14:16:55.490Z,3.80
2018-08-24T14:19:24.863Z,3.92
2018-08-24T14:21:53.346Z,3.10
2018-08-24T14:24:21.819Z,3.05
2018-08-24T14:26:50.270Z,3.10
2018-08-24T14:29:18.754Z,2.98
2018-08-24T14:31:47.442Z,2.75
2018-08-24T14:34:15.899Z,3.10
2018-08-24T14:36:44.358Z,2.83
2018-08-24T14:39:13.024Z,3.10
2018-08-24T14:41:41.695Z,3.10
2018-08-24T14:44:12.170Z,3.15
2018-08-24T14:46:40.633Z,2.60
2018-08-24T14:49:09.126Z,2.72
2018-08-24T14:51:37.589Z,3.17
2018-08-24T14:54:06.233Z,2.70
2018-08-24T14:56:34.681Z,2.83
2018-08-24T14:59:03.186Z,3.13
2018-08-24T15:01:31.666Z,2.73
2018-08-24T15:04:00.154Z,2.80
2018-08-24T15:06:28.630Z,3.00
2018-08-24T15:08:57.250Z,2.90
2018-08-24T15:11:25.731Z,2.80
2018-08-24T15:13:54.203Z,3.20
2018-08-24T15:16:22.701Z,4.27
2018-08-24T15:18:51.193Z,4.40
2018-08-24T15:21:19.667Z,3.70
2018-08-24T15:23:48.141Z,3.37
2018-08-24T15:26:16.573Z,3.53
2018-08-24T15:28:45.097Z,5.70
2018-08-24T15:31:13.553Z,3.73
2018-08-24T15:33:42.044Z,3.37
2018-08-24T15:36:10.503Z,3.50
2018-08-24T15:38:38.986Z,3.80
2018-08-24T15:41:07.844Z,3.53
2018-08-24T15:43:36.305Z,3.63
2018-08-24T15:46:04.870Z,4.00
2018-08-24T15:48:33.308Z,3.57
2018-08-24T15:51:01.801Z,3.30
2018-08-24T15:53:30.278Z,3.47
2018-08-24T15:55:58.768Z,3.80
2018-08-24T15:58:27.229Z,3.87
2018-08-24T16:00:55.695Z,4.10
2018-08-24T16:03:24.158Z,4.00
2018-08-24T16:05:52.628Z,4.07
2018-08-24T16:08:21.070Z,3.70
2018-08-24T16:10:49.543Z,3.50
2018-08-24T16:13:17.999Z,3.42
2018-08-24T16:15:46.462Z,4.20
2018-08-24T16:18:20.151Z,4.22
2018-08-24T16:20:48.651Z,4.07
2018-08-24T16:23:17.096Z,4.87
2018-08-24T16:25:45.575Z,4.03
2018-08-24T16:28:14.088Z,3.90
2018-08-24T16:30:42.573Z,3.50
2018-08-24T16:33:11.061Z,3.37
2018-08-24T16:35:44.341Z,3.50
2018-08-24T16:38:12.850Z,3.07
2018-08-24T16:40:41.346Z,3.23
2018-08-24T16:43:09.818Z,3.40
2018-08-24T16:45:38.294Z,3.03
2018-08-24T16:48:06.781Z,3.13
2018-08-24T16:50:35.279Z,3.13
2018-08-24T16:53:03.724Z,3.60
2018-08-24T16:55:32.242Z,3.20
2018-08-24T16:58:00.780Z,3.10
2018-08-24T17:00:29.246Z,3.50
2018-08-24T17:02:57.677Z,3.53
2018-08-24T17:05:26.173Z,3.40
2018-08-24T17:07:54.603Z,3.47
2018-08-24T17:10:23.082Z,3.70
2018-08-24T17:12:51.578Z,3.67
2018-08-24T17:15:20.078Z,3.80
2018-08-24T17:17:48.642Z,3.67
2018-08-24T17:20:17.215Z,3.80
2018-08-24T17:22:45.669Z,3.90
2018-08-24T17:25:14.161Z,4.40
2018-08-24T17:27:42.613Z,4.37
2018-08-24T17:30:11.109Z,3.90
2018-08-24T17:32:39.585Z,4.50
2018-08-24T17:35:08.331Z,4.40
2018-08-24T17:37:37.269Z,4.60
2018-08-24T17:40:05.830Z,5.00
2018-08-24T17:42:34.398Z,5.07
2018-08-24T17:45:02.841Z,4.90
2018-08-24T17:47:31.329Z,4.70
2018-08-24T17:49:59.786Z,5.00
2018-08-24T17:52:28.276Z,5.50
2018-08-24T17:54:56.802Z,5.90
2018-08-24T17:57:25.368Z,6.00
2018-08-24T17:59:53.840Z,6.33
2018-08-24T18:02:22.371Z,6.30
2018-08-24T18:04:50.869Z,6.60
2018-08-24T18:07:19.380Z,6.30
2018-08-24T18:09:47.851Z,6.70
2018-08-24T18:12:16.365Z,6.57
2018-08-24T18:14:44.835Z,6.83
2018-08-24T18:17:13.363Z,7.10
2018-08-24T18:19:41.841Z,7.57
2018-08-24T18:22:10.348Z,7.43
2018-08-24T18:24:38.894Z,7.90
2018-08-24T18:27:07.473Z,8.80
2018-08-24T18:29:35.921Z,8.90
2018-08-24T18:32:04.462Z,9.03
2018-08-24T18:34:32.951Z,8.87
2018-08-24T18:37:01.434Z,9.73
2018-08-24T18:39:29.935Z,9.23
2018-08-24T18:41:58.404Z,9.50
2018-08-24T18:44:26.855Z,9.30
2018-08-24T18:46:55.962Z,9.30
2018-08-24T18:49:24.418Z,9.27
2018-08-24T18:51:52.924Z,9.80
2018-08-24T18:54:21.422Z,9.20
2018-08-24T18:56:49.905Z,10.17
2018-08-24T18:59:18.354Z,9.70
2018-08-24T19:01:46.831Z,10.33
2018-08-24T19:04:15.295Z,9.60
2018-08-24T19:06:43.782Z,9.00
2018-08-24T19:09:12.253Z,8.03
2018-08-24T19:11:46.101Z,8.20
2018-08-24T19:14:14.551Z,7.83
2018-08-24T19:16:43.040Z,7.17
2018-08-24T19:19:16.773Z,7.20
2018-08-24T19:21:47.012Z,6.90
2018-08-24T19:24:15.472Z,6.50
2018-08-24T19:26:44.113Z,5.83
2018-08-24T19:29:17.890Z,5.50
2018-08-24T19:31:46.353Z,5.47
2018-08-24T19:34:14.850Z,5.63
2018-08-24T19:36:43.351Z,5.77
2018-08-24T19:39:13.674Z,5.70
2018-08-24T19:41:47.473Z,5.33
2018-08-24T19:44:16.074Z,5.63
2018-08-24T19:46:44.772Z,5.67
2018-08-24T19:49:17.630Z,5.80
2018-08-24T19:51:46.064Z,5.53
2018-08-24T19:54:15.458Z,5.40
2018-08-24T19:56:44.119Z,5.50
2018-08-24T19:59:14.055Z,5.27
2018-08-24T20:01:42.530Z,5.10
2018-08-24T20:04:11.087Z,5.43
2018-08-24T20:06:45.385Z,5.70
2018-08-24T20:09:19.237Z,5.07
2018-08-24T20:11:48.960Z,5.17
2018-08-24T20:14:21.581Z,5.20
2018-08-24T20:16:55.438Z,5.47
2018-08-24T20:19:23.898Z,5.50
2018-08-24T20:21:52.399Z,5.47
2018-08-24T20:24:21.155Z,5.73
2018-08-24T20:26:49.951Z,4.90
2018-08-24T20:29:19.067Z,5.17
2018-08-24T20:31:47.705Z,5.07
2018-08-24T20:34:16.298Z,5.03
2018-08-24T20:36:45.219Z,5.40
2018-08-24T20:39:13.717Z,5.00
2018-08-24T20:41:42.378Z,5.20
2018-08-24T20:44:10.858Z,5.10
2018-08-24T20:46:39.288Z,5.17
2018-08-24T20:49:07.803Z,5.37
2018-08-24T20:51:36.271Z,5.50
2018-08-24T20:54:04.842Z,5.33
2018-08-24T20:56:33.394Z,5.37
2018-08-24T20:59:01.921Z,6.10
2018-08-24T21:01:30.436Z,6.70
2018-08-24T21:03:58.955Z,5.87
2018-08-24T21:06:27.381Z,6.50
2018-08-24T21:08:55.834Z,6.50
2018-08-24T21:11:24.346Z,6.10
2018-08-24T21:13:52.774Z,6.63
2018-08-24T21:16:21.251Z,6.10
2018-08-24T21:18:49.686Z,6.23
2018-08-24T21:21:18.194Z,6.80
2018-08-24T21:23:46.622Z,6.63
2018-08-24T21:26:15.082Z,7.23
2018-08-24T21:28:43.522Z,6.77
2018-08-24T21:32:41.089Z,6.83
2018-08-24T21:35:09.610Z,6.90
2018-08-24T21:37:38.053Z,6.83
2018-08-24T21:40:06.593Z,7.33
2018-08-24T21:42:35.030Z,7.13
2018-08-24T21:45:03.532Z,7.80
2018-08-24T21:47:31.966Z,7.43
2018-08-24T21:50:00.441Z,7.40
2018-08-24T21:52:29.005Z,7.77
2018-08-24T21:54:57.515Z,7.43
2018-08-24T21:57:25.984Z,7.33
2018-08-24T21:59:54.483Z,8.03
2018-08-24T22:02:22.944Z,7.73
2018-08-24T22:04:51.448Z,7.87
2018-08-24T22:07:19.905Z,7.90
2018-08-24T22:09:48.456Z,8.43
2018-08-24T22:12:16.885Z,9.00
2018-08-24T22:14:45.401Z,8.47
2018-08-24T22:17:13.853Z,8.50
2018-08-24T22:19:42.302Z,8.90
2018-08-24T22:22:10.775Z,9.33
2018-08-24T22:24:39.245Z,8.63
2018-08-24T22:27:07.725Z,9.03
2018-08-24T22:29:36.161Z,9.00
2018-08-24T22:32:04.661Z,9.47
2018-08-24T22:34:33.118Z,9.03
2018-08-24T22:37:01.591Z,9.20
2018-08-24T22:42:21.440Z,9.30
2018-08-24T22:44:49.900Z,9.80
2018-08-24T22:47:18.446Z,10.03
2018-08-24T22:49:46.876Z,9.47
2018-08-24T22:52:15.346Z,9.83
2018-08-24T22:54:43.827Z,9.60
2018-08-24T22:57:12.410Z,9.67
2018-08-24T22:59:40.906Z,9.67
2018-08-24T23:02:09.381Z,9.43
2018-08-24T23:04:37.891Z,9.97
2018-08-24T23:07:06.413Z,10.17
2018-08-24T23:09:34.847Z,9.90
2018-08-24T23:12:03.323Z,10.40
2018-08-24T23:14:31.774Z,10.33
2018-08-24T23:17:00.243Z,10.37
2018-08-24T23:19:28.694Z,10.40
2018-08-24T23:21:57.188Z,10.07
2018-08-24T23:24:25.618Z,11.03
2018-08-24T23:26:54.110Z,10.43
2018-08-24T23:29:22.554Z,10.53
2018-08-24T23:31:51.033Z,11.10
2018-08-24T23:34:19.478Z,10.40
2018-08-24T23:36:47.962Z,10.93
2018-08-24T23:39:16.410Z,11.40
2018-08-24T23:41:44.898Z,11.67
2018-08-24T23:44:13.401Z,10.77
2018-08-24T23:46:41.878Z,10.70
2018-08-24T23:49:10.330Z,12.50
2018-08-24T23:51:38.801Z,11.10
2018-08-24T23:54:07.288Z,11.90
2018-08-24T23:56:35.770Z,12.30
2018-08-24T23:59:04.237Z,12.27
